createdAt,value
2019-03-10T00:01:18.643Z,3.20
2019-03-10T00:03:46.737Z,3.00
2019-03-10T00:06:14.822Z,2.83
2019-03-10T00:08:42.871Z,2.53
2019-03-10T00:11:10.949Z,2.57
2019-03-10T00:13:39.083Z,3.37
2019-03-10T00:16:07.175Z,3.03
2019-03-10T00:18:35.362Z,2.27
2019-03-10T00:21:03.441Z,2.83
2019-03-10T00:23:31.572Z,2.83
2019-03-10T00:25:59.746Z,2.93
2019-03-10T00:28:27.814Z,2.60
2019-03-10T00:30:55.948Z,3.83
2019-03-10T00:33:24.049Z,2.60
2019-03-10T00:35:52.139Z,2.80
2019-03-10T00:38:20.217Z,2.73
2019-03-10T00:41:25.894Z,2.67
2019-03-10T00:44:11.625Z,2.37
2019-03-10T00:47:10.981Z,2.27
2019-03-10T00:50:01.043Z,3.27
2019-03-10T00:52:31.700Z,2.87
2019-03-10T00:54:59.850Z,3.03
2019-03-10T00:57:27.900Z,2.40
2019-03-10T00:59:56.027Z,2.70
2019-03-10T01:02:24.217Z,3.67
2019-03-10T01:04:52.297Z,3.43
2019-03-10T01:07:20.412Z,3.43
2019-03-10T01:09:48.487Z,2.50
2019-03-10T01:12:16.601Z,3.60
2019-03-10T01:14:45.185Z,3.10
2019-03-10T01:17:13.377Z,3.10
2019-03-10T01:19:41.564Z,2.83
2019-03-10T01:22:10.129Z,3.17
2019-03-10T01:24:38.288Z,4.23
2019-03-10T01:27:06.393Z,3.40
2019-03-10T01:29:34.685Z,3.43
2019-03-10T01:32:14.767Z,3.50
2019-03-10T01:34:49.528Z,3.30
2019-03-10T01:37:17.568Z,2.93
2019-03-10T01:39:45.670Z,3.80
2019-03-10T01:42:13.690Z,3.50
2019-03-10T01:44:41.832Z,3.33
2019-03-10T01:47:09.948Z,3.47
2019-03-10T01:49:38.091Z,2.97
2019-03-10T01:52:06.138Z,3.20
2019-03-10T01:54:34.202Z,3.23
2019-03-10T01:57:02.285Z,3.60
2019-03-10T01:59:30.413Z,2.80
2019-03-10T02:01:58.594Z,3.37
2019-03-10T02:04:26.742Z,2.70
2019-03-10T02:06:54.803Z,3.20
2019-03-10T02:09:22.856Z,3.13
2019-03-10T02:11:51.017Z,3.50
2019-03-10T02:14:19.076Z,3.20
2019-03-10T02:16:47.127Z,3.03
2019-03-10T02:19:15.227Z,4.17
2019-03-10T02:21:43.385Z,3.10
2019-03-10T02:24:11.451Z,3.20
2019-03-10T02:26:39.551Z,3.10
2019-03-10T02:29:07.760Z,3.97
2019-03-10T02:31:35.981Z,2.80
2019-03-10T02:34:04.136Z,4.47
2019-03-10T02:36:32.219Z,2.63
2019-03-10T02:39:19.293Z,3.47
2019-03-10T02:41:47.362Z,2.70
2019-03-10T02:44:15.431Z,4.40
2019-03-10T02:46:43.537Z,2.40
2019-03-10T02:49:11.573Z,2.67
2019-03-10T02:51:39.699Z,2.60
2019-03-10T02:54:07.691Z,3.07
2019-03-10T02:56:35.799Z,2.57
2019-03-10T02:59:03.864Z,2.70
2019-03-10T03:01:31.967Z,2.20
2019-03-10T03:04:00.099Z,2.70
2019-03-10T03:06:28.158Z,2.90
2019-03-10T03:08:56.197Z,2.17
2019-03-10T03:11:24.251Z,2.33
2019-03-10T03:13:52.292Z,3.27
2019-03-10T03:19:30.147Z,2.10
2019-03-10T03:22:19.294Z,2.20
2019-03-10T03:24:47.309Z,1.63
2019-03-10T03:27:15.366Z,1.93
2019-03-10T03:29:43.421Z,2.50
2019-03-10T03:32:11.513Z,2.00
2019-03-10T03:34:39.524Z,2.07
2019-03-10T03:37:08.521Z,2.03
2019-03-10T03:39:41.110Z,2.20
2019-03-10T03:42:09.221Z,2.37
2019-03-10T03:44:37.264Z,1.90
2019-03-10T03:47:05.315Z,2.17
2019-03-10T03:49:33.386Z,2.17
2019-03-10T03:52:01.435Z,2.97
2019-03-10T03:54:29.531Z,1.97
2019-03-10T03:56:57.575Z,2.57
2019-03-10T03:59:25.682Z,2.70
2019-03-10T04:02:03.230Z,2.67
2019-03-10T04:04:31.298Z,2.23
2019-03-10T04:06:59.328Z,2.70
2019-03-10T04:09:27.394Z,3.00
2019-03-10T04:11:55.490Z,2.77
2019-03-10T04:14:23.524Z,2.40
2019-03-10T04:16:51.803Z,3.27
2019-03-10T04:19:19.902Z,2.73
2019-03-10T04:21:47.956Z,3.07
2019-03-10T04:24:16.021Z,3.50
2019-03-10T04:26:44.086Z,2.50
2019-03-10T04:29:12.166Z,2.90
2019-03-10T04:31:40.188Z,2.40
2019-03-10T04:34:08.233Z,2.43
2019-03-10T04:36:36.305Z,2.93
2019-03-10T04:39:06.299Z,3.20
2019-03-10T04:41:34.324Z,3.17
2019-03-10T04:44:02.405Z,3.27
2019-03-10T04:46:30.455Z,2.90
2019-03-10T04:48:58.609Z,3.77
2019-03-10T04:51:26.652Z,3.40
2019-03-10T04:53:54.733Z,3.33
2019-03-10T04:56:30.435Z,3.47
2019-03-10T04:58:58.488Z,3.30
2019-03-10T05:01:26.523Z,2.93
2019-03-10T05:03:54.587Z,3.57
2019-03-10T05:06:22.635Z,3.07
2019-03-10T05:08:50.686Z,3.10
2019-03-10T05:11:18.757Z,3.43
2019-03-10T05:13:46.808Z,3.07
2019-03-10T05:16:14.872Z,3.20
2019-03-10T05:18:42.933Z,3.33
2019-03-10T05:21:11.002Z,3.70
2019-03-10T05:23:40.028Z,2.73
2019-03-10T05:26:08.263Z,3.33
2019-03-10T05:28:37.350Z,3.13
2019-03-10T05:31:05.417Z,3.50
2019-03-10T05:33:33.487Z,4.17
2019-03-10T05:36:01.583Z,2.70
2019-03-10T05:38:29.674Z,3.30
2019-03-10T05:40:57.710Z,3.07
2019-03-10T05:43:25.730Z,3.23
2019-03-10T05:45:53.817Z,3.43
2019-03-10T05:48:21.881Z,3.37
2019-03-10T05:50:49.953Z,3.23
2019-03-10T05:53:17.992Z,2.90
2019-03-10T05:55:46.057Z,2.80
2019-03-10T05:58:14.136Z,3.00
2019-03-10T06:00:43.240Z,2.83
2019-03-10T06:03:11.553Z,3.23
2019-03-10T06:05:39.654Z,3.23
2019-03-10T06:08:07.721Z,2.97
2019-03-10T06:10:35.822Z,3.80
2019-03-10T06:13:03.853Z,3.70
2019-03-10T06:15:31.961Z,3.50
2019-03-10T06:18:00.022Z,3.50
2019-03-10T06:20:28.904Z,3.70
2019-03-10T06:22:57.038Z,3.10
2019-03-10T06:25:25.105Z,3.23
2019-03-10T06:27:53.172Z,3.43
2019-03-10T06:30:21.289Z,2.80
2019-03-10T06:32:49.352Z,3.80
2019-03-10T06:35:17.424Z,3.10
2019-03-10T06:37:45.512Z,3.70
2019-03-10T06:40:13.581Z,3.53
2019-03-10T06:42:41.610Z,3.60
2019-03-10T06:45:09.683Z,3.20
2019-03-10T06:47:37.733Z,3.80
2019-03-10T06:50:06.040Z,3.97
2019-03-10T06:52:34.137Z,3.33
2019-03-10T06:55:02.230Z,3.77
2019-03-10T06:57:30.386Z,3.30
2019-03-10T06:59:58.390Z,2.93
2019-03-10T07:02:26.470Z,2.83
2019-03-10T07:04:54.554Z,3.30
2019-03-10T07:07:22.703Z,3.10
2019-03-10T07:09:50.813Z,3.17
2019-03-10T07:12:18.942Z,3.30
2019-03-10T07:14:47.077Z,3.17
2019-03-10T07:17:15.182Z,3.87
2019-03-10T07:19:43.275Z,3.83
2019-03-10T07:22:11.364Z,4.23
2019-03-10T07:24:39.463Z,3.10
2019-03-10T07:27:07.497Z,3.63
2019-03-10T07:29:40.973Z,3.40
2019-03-10T07:32:28.054Z,3.20
2019-03-10T07:35:18.233Z,3.77
2019-03-10T07:38:05.340Z,3.30
2019-03-10T07:40:50.777Z,3.40
2019-03-10T07:43:29.529Z,3.13
2019-03-10T07:46:15.522Z,3.70
2019-03-10T07:48:52.689Z,3.67
2019-03-10T07:51:52.122Z,3.10
2019-03-10T07:54:37.900Z,2.90
2019-03-10T07:57:30.790Z,3.10
2019-03-10T08:00:36.439Z,3.20
2019-03-10T08:03:13.776Z,4.03
2019-03-10T08:06:03.744Z,2.73
2019-03-10T08:08:38.711Z,3.37
2019-03-10T08:11:37.750Z,3.87
2019-03-10T08:14:27.940Z,2.77
2019-03-10T08:17:11.265Z,4.17
2019-03-10T08:19:58.419Z,3.00
2019-03-10T08:22:59.222Z,3.20
2019-03-10T08:25:39.255Z,3.43
2019-03-10T08:28:32.812Z,2.60
2019-03-10T08:31:18.639Z,2.80
2019-03-10T08:34:01.917Z,3.30
2019-03-10T08:36:38.670Z,3.20
2019-03-10T08:42:33.104Z,3.50
2019-03-10T08:45:32.236Z,3.57
2019-03-10T08:48:11.290Z,3.40
2019-03-10T08:50:46.486Z,3.00
2019-03-10T08:53:22.563Z,3.57
2019-03-10T08:55:59.792Z,3.37
2019-03-10T08:58:45.811Z,3.60
2019-03-10T09:01:35.186Z,3.17
2019-03-10T09:04:21.177Z,3.23
2019-03-10T09:06:59.016Z,3.53
2019-03-10T09:09:49.284Z,3.27
2019-03-10T09:12:26.794Z,2.93
2019-03-10T09:15:05.477Z,3.43
2019-03-10T09:18:07.758Z,3.37
2019-03-10T09:20:54.490Z,3.10
2019-03-10T09:23:40.404Z,3.40
2019-03-10T09:26:42.619Z,3.43
2019-03-10T09:29:16.760Z,3.03
2019-03-10T09:31:57.080Z,4.63
2019-03-10T09:34:42.307Z,3.00
2019-03-10T09:37:32.561Z,3.43
2019-03-10T09:40:18.493Z,3.80
2019-03-10T09:43:20.967Z,3.97
2019-03-10T09:46:08.062Z,2.80
2019-03-10T09:48:54.014Z,3.20
2019-03-10T09:51:44.186Z,5.20
2019-03-10T09:54:29.115Z,3.93
2019-03-10T09:57:19.171Z,4.57
2019-03-10T10:00:06.286Z,3.63
2019-03-10T10:02:53.405Z,3.80
2019-03-10T10:05:37.555Z,4.37
2019-03-10T10:08:33.359Z,4.53
2019-03-10T10:11:20.513Z,5.17
2019-03-10T10:14:07.766Z,5.20
2019-03-10T10:16:57.866Z,4.97
2019-03-10T10:19:53.893Z,5.60
2019-03-10T10:22:40.995Z,4.40
2019-03-10T10:25:20.164Z,3.93
2019-03-10T10:28:01.930Z,4.17
2019-03-10T10:30:47.869Z,4.17
2019-03-10T10:33:43.579Z,4.10
2019-03-10T10:36:49.170Z,4.53
2019-03-10T10:39:45.057Z,3.70
2019-03-10T10:42:31.304Z,3.20
2019-03-10T10:45:33.827Z,4.53
2019-03-10T10:48:22.277Z,3.33
2019-03-10T10:51:00.491Z,4.30
2019-03-10T10:53:47.722Z,4.03
2019-03-10T10:56:33.435Z,4.57
2019-03-10T10:59:20.718Z,4.10
2019-03-10T11:02:11.019Z,4.63
2019-03-10T11:04:58.163Z,3.57
2019-03-10T11:07:40.596Z,3.90
2019-03-10T11:10:26.783Z,4.20
2019-03-10T11:13:19.641Z,3.63
2019-03-10T11:16:06.960Z,3.73
2019-03-10T11:18:57.109Z,4.10
2019-03-10T11:35:01.909Z,3.17
2019-03-10T11:38:26.303Z,3.23
2019-03-10T11:42:08.513Z,2.60
2019-03-10T11:45:25.158Z,2.43
2019-03-10T11:48:32.750Z,1.87
2019-03-10T11:51:04.473Z,2.90
2019-03-10T12:04:21.622Z,2.60
2019-03-10T12:09:38.348Z,3.43
2019-03-10T12:12:06.679Z,2.50
2019-03-10T12:14:34.773Z,2.20
2019-03-10T12:17:05.223Z,2.80
2019-03-10T12:19:33.915Z,2.67
2019-03-10T12:22:04.070Z,2.40
2019-03-10T12:24:32.166Z,2.57
2019-03-10T12:27:00.262Z,2.67
2019-03-10T12:29:28.398Z,2.90
2019-03-10T12:31:56.518Z,5.10
2019-03-10T12:34:24.640Z,4.10
2019-03-10T12:36:52.769Z,3.27
2019-03-10T12:39:21.216Z,3.57
2019-03-10T12:41:58.010Z,2.63
2019-03-10T12:44:19.206Z,3.57
2019-03-10T12:46:50.225Z,4.83
2019-03-10T12:49:18.694Z,3.77
2019-03-10T12:51:47.250Z,2.93
2019-03-10T12:54:15.303Z,3.50
2019-03-10T12:56:43.632Z,2.80
2019-03-10T12:59:11.969Z,2.50
2019-03-10T13:01:40.298Z,2.13
2019-03-10T13:04:08.640Z,2.10
2019-03-10T13:06:39.887Z,4.13
2019-03-10T13:09:09.364Z,3.20
2019-03-10T13:11:37.662Z,2.80
2019-03-10T13:14:11.869Z,2.57
2019-03-10T13:16:35.570Z,2.47
2019-03-10T13:19:03.774Z,4.73
2019-03-10T13:21:32.145Z,3.23
2019-03-10T13:24:03.260Z,1.60
2019-03-10T13:26:34.204Z,2.00
2019-03-10T13:29:02.651Z,2.33
2019-03-10T13:31:30.797Z,1.20
2019-03-10T13:33:59.285Z,0.90
2019-03-10T13:36:27.439Z,1.70
2019-03-10T13:38:55.682Z,1.43
2019-03-10T13:41:23.849Z,1.50
2019-03-10T13:43:52.083Z,1.20
2019-03-10T13:46:23.201Z,1.67
2019-03-10T13:48:51.311Z,2.23
2019-03-10T13:51:19.395Z,2.03
2019-03-10T13:53:53.358Z,1.90
2019-03-10T13:56:23.897Z,1.63
2019-03-10T13:58:53.770Z,2.00
2019-03-10T14:01:24.210Z,1.57
2019-03-10T14:04:00.207Z,0.80
2019-03-10T14:06:33.589Z,0.73
2019-03-10T14:09:03.950Z,0.90
2019-03-10T14:11:34.829Z,0.83
2019-03-10T14:14:04.549Z,0.67
2019-03-10T14:16:32.676Z,0.70
2019-03-10T14:19:00.883Z,0.77
2019-03-10T14:21:38.107Z,1.80
2019-03-10T14:24:12.328Z,2.83
2019-03-10T14:26:41.781Z,4.57
2019-03-10T14:29:13.607Z,1.23
2019-03-10T14:31:43.311Z,1.10
2019-03-10T14:34:17.333Z,1.20
2019-03-10T14:36:41.379Z,1.43
2019-03-10T14:39:09.814Z,2.30
2019-03-10T14:41:37.922Z,1.73
2019-03-10T14:44:06.002Z,1.30
2019-03-10T14:46:34.223Z,1.60
2019-03-10T14:49:02.421Z,2.07
2019-03-10T14:51:30.802Z,1.47
2019-03-10T14:53:59.150Z,1.33
2019-03-10T14:56:27.593Z,1.13
2019-03-10T14:58:55.871Z,1.87
2019-03-10T15:01:24.322Z,1.30
2019-03-10T15:03:52.654Z,1.53
2019-03-10T15:06:20.953Z,1.30
2019-03-10T15:08:49.136Z,1.23
2019-03-10T15:11:17.790Z,1.80
2019-03-10T15:13:45.862Z,2.57
2019-03-10T15:16:14.031Z,3.80
2019-03-10T15:18:42.087Z,2.37
2019-03-10T15:21:10.187Z,2.53
2019-03-10T15:23:40.232Z,2.67
2019-03-10T15:26:07.984Z,1.80
2019-03-10T15:28:36.027Z,2.80
2019-03-10T15:31:04.148Z,2.80
2019-03-10T15:33:32.218Z,2.80
2019-03-10T15:36:00.307Z,2.70
2019-03-10T15:38:28.389Z,1.80
2019-03-10T15:40:56.491Z,2.33
2019-03-10T15:43:24.604Z,2.43
2019-03-10T15:45:52.679Z,2.27
2019-03-10T15:48:20.679Z,2.67
2019-03-10T15:50:48.769Z,2.53
2019-03-10T15:53:16.831Z,2.57
2019-03-10T15:55:44.849Z,2.30
2019-03-10T15:58:13.398Z,2.60
2019-03-10T16:00:41.795Z,2.23
2019-03-10T16:03:09.916Z,2.53
2019-03-10T16:05:38.103Z,3.50
2019-03-10T16:08:06.237Z,3.10
2019-03-10T16:10:34.338Z,2.50
2019-03-10T16:13:02.443Z,3.30
2019-03-10T16:15:30.558Z,3.00
2019-03-10T16:17:58.644Z,2.93
2019-03-10T16:20:26.698Z,2.20
2019-03-10T16:22:55.559Z,2.00
2019-03-10T16:25:23.839Z,2.40
2019-03-10T16:27:52.394Z,2.50
2019-03-10T16:30:20.825Z,2.17
2019-03-10T16:32:48.870Z,2.40
2019-03-10T16:35:17.066Z,2.70
2019-03-10T16:37:45.286Z,3.70
2019-03-10T16:40:14.156Z,4.13
2019-03-10T16:42:42.360Z,4.23
2019-03-10T16:45:12.671Z,4.53
2019-03-10T16:47:40.793Z,3.53
2019-03-10T16:50:09.671Z,3.07
2019-03-10T16:52:37.826Z,2.90
2019-03-10T16:55:06.410Z,4.47
2019-03-10T16:57:34.896Z,2.60
2019-03-10T17:00:02.976Z,3.53
2019-03-10T17:02:31.086Z,2.53
2019-03-10T17:04:59.184Z,4.00
2019-03-10T17:07:27.278Z,4.00
2019-03-10T17:09:55.376Z,5.37
2019-03-10T17:12:23.505Z,2.67
2019-03-10T17:14:51.593Z,3.00
2019-03-10T17:17:19.753Z,3.90
2019-03-10T17:19:47.901Z,4.83
2019-03-10T17:22:16.289Z,10.77
2019-03-10T17:24:44.400Z,6.30
2019-03-10T17:27:12.641Z,4.10
2019-03-10T17:29:40.772Z,5.93
2019-03-10T17:32:09.603Z,3.83
2019-03-10T17:34:38.117Z,5.00
2019-03-10T17:37:06.403Z,4.90
2019-03-10T17:39:34.789Z,6.03
2019-03-10T17:42:03.307Z,4.17
2019-03-10T17:44:40.650Z,4.87
2019-03-10T17:47:01.632Z,4.03
2019-03-10T17:49:29.842Z,4.10
2019-03-10T17:51:57.964Z,4.87
2019-03-10T17:54:26.162Z,4.97
2019-03-10T17:56:54.341Z,3.63
2019-03-10T17:59:22.835Z,4.27
2019-03-10T18:01:50.964Z,4.07
2019-03-10T18:04:19.607Z,4.57
2019-03-10T18:06:48.316Z,5.57
2019-03-10T18:09:17.173Z,4.23
2019-03-10T18:11:45.879Z,3.30
2019-03-10T18:14:14.394Z,4.03
2019-03-10T18:16:43.168Z,4.23
2019-03-10T18:19:11.657Z,3.67
2019-03-10T18:21:39.954Z,4.07
2019-03-10T18:24:08.507Z,3.77
2019-03-10T18:26:36.966Z,3.87
2019-03-10T18:29:05.297Z,3.33
2019-03-10T18:31:34.529Z,3.20
2019-03-10T18:34:02.804Z,4.23
2019-03-10T18:39:28.716Z,3.80
2019-03-10T18:45:19.057Z,3.63
2019-03-10T18:47:47.342Z,3.83
2019-03-10T18:50:16.642Z,3.47
2019-03-10T18:52:44.944Z,3.67
2019-03-10T18:55:14.086Z,3.13
2019-03-10T18:57:42.723Z,3.80
2019-03-10T19:00:13.108Z,3.27
2019-03-10T19:02:41.311Z,2.93
2019-03-10T19:05:10.181Z,3.97
2019-03-10T19:07:38.942Z,4.00
2019-03-10T19:10:08.347Z,3.80
2019-03-10T19:12:36.616Z,6.20
2019-03-10T19:15:05.247Z,5.60
2019-03-10T19:17:33.295Z,5.47
2019-03-10T19:20:01.522Z,5.17
2019-03-10T19:22:29.599Z,4.93
2019-03-10T19:24:57.678Z,3.77
2019-03-10T19:27:30.298Z,3.87
2019-03-10T19:29:55.563Z,4.30
2019-03-10T19:32:23.694Z,3.27
2019-03-10T19:34:51.913Z,3.10
2019-03-10T19:37:20.147Z,4.10
2019-03-10T19:39:48.231Z,4.10
2019-03-10T19:42:16.380Z,3.33
2019-03-10T19:44:44.472Z,4.23
2019-03-10T19:47:12.545Z,4.83
2019-03-10T19:49:40.712Z,3.80
2019-03-10T19:52:08.836Z,3.10
2019-03-10T19:55:02.563Z,2.77
2019-03-10T19:57:30.710Z,3.90
2019-03-10T19:59:58.817Z,3.80
2019-03-10T20:02:27.332Z,3.50
2019-03-10T20:04:55.464Z,3.63
2019-03-10T20:07:23.677Z,3.53
2019-03-10T20:09:51.781Z,3.67
2019-03-10T20:12:20.110Z,3.23
2019-03-10T20:14:48.219Z,2.67
2019-03-10T20:17:16.448Z,3.33
2019-03-10T20:19:44.552Z,3.40
2019-03-10T20:22:12.666Z,4.00
2019-03-10T20:24:40.814Z,3.33
2019-03-10T20:27:09.012Z,3.03
2019-03-10T20:29:37.107Z,3.07
2019-03-10T20:32:13.406Z,4.53
2019-03-10T20:34:34.991Z,3.57
2019-03-10T20:37:03.193Z,3.73
2019-03-10T20:39:31.339Z,3.83
2019-03-10T20:42:05.162Z,4.97
2019-03-10T20:44:38.579Z,6.30
2019-03-10T20:47:06.839Z,4.33
2019-03-10T20:49:35.236Z,3.30
2019-03-10T20:52:03.688Z,3.93
2019-03-10T20:54:32.111Z,3.57
2019-03-10T20:57:00.531Z,3.70
2019-03-10T20:59:28.713Z,2.73
2019-03-10T21:01:56.924Z,3.40
2019-03-10T21:04:25.054Z,3.80
2019-03-10T21:06:53.391Z,4.20
2019-03-10T21:09:21.880Z,3.17
2019-03-10T21:11:50.444Z,3.60
2019-03-10T21:14:18.841Z,2.60
2019-03-10T21:16:47.189Z,2.93
2019-03-10T21:19:15.396Z,3.17
2019-03-10T21:21:44.602Z,3.40
2019-03-10T21:24:12.701Z,3.37
2019-03-10T21:26:40.857Z,3.43
2019-03-10T21:29:09.194Z,4.07
2019-03-10T21:31:37.471Z,3.80
2019-03-10T21:34:05.606Z,4.40
2019-03-10T21:36:33.945Z,4.03
2019-03-10T21:39:02.032Z,3.63
2019-03-10T21:41:30.207Z,3.50
2019-03-10T21:44:01.097Z,3.90
2019-03-10T21:46:29.543Z,3.53
2019-03-10T21:48:57.847Z,3.60
2019-03-10T21:51:28.095Z,3.93
2019-03-10T21:53:56.439Z,3.83
2019-03-10T21:56:24.927Z,3.73
2019-03-10T21:58:53.198Z,4.00
2019-03-10T22:01:21.489Z,3.83
2019-03-10T22:03:49.863Z,4.30
2019-03-10T22:06:18.108Z,4.30
2019-03-10T22:08:46.240Z,4.30
2019-03-10T22:11:14.413Z,5.17
2019-03-10T22:13:46.607Z,4.73
2019-03-10T22:16:12.452Z,5.47
2019-03-10T22:18:40.576Z,4.57
2019-03-10T22:21:08.986Z,5.37
2019-03-10T22:23:37.326Z,5.47
2019-03-10T22:26:05.448Z,5.17
2019-03-10T22:28:33.589Z,5.23
2019-03-10T22:31:02.813Z,5.60
2019-03-10T22:33:30.945Z,6.00
2019-03-10T22:39:08.375Z,5.93
2019-03-10T22:41:36.431Z,5.23
2019-03-10T22:44:04.593Z,5.63
2019-03-10T22:46:32.653Z,5.17
2019-03-10T22:49:00.836Z,5.27
2019-03-10T22:51:30.339Z,4.00
2019-03-10T22:53:58.471Z,4.73
2019-03-10T22:56:26.601Z,4.43
2019-03-10T22:58:54.749Z,3.73
2019-03-10T23:01:22.872Z,3.73
2019-03-10T23:03:50.968Z,4.13
2019-03-10T23:06:19.049Z,4.03
2019-03-10T23:08:47.114Z,3.77
2019-03-10T23:11:15.154Z,4.07
2019-03-10T23:13:44.952Z,4.00
2019-03-10T23:16:13.120Z,3.70
2019-03-10T23:18:41.185Z,3.90
2019-03-10T23:21:09.226Z,3.63
2019-03-10T23:23:37.330Z,3.70
2019-03-10T23:26:05.393Z,3.80
2019-03-10T23:28:35.380Z,3.43
2019-03-10T23:31:03.509Z,3.27
2019-03-10T23:33:31.551Z,3.23
2019-03-10T23:35:59.624Z,2.90
2019-03-10T23:38:27.755Z,2.77
2019-03-10T23:40:55.805Z,2.83
2019-03-10T23:43:23.866Z,2.50
2019-03-10T23:45:51.925Z,2.80
2019-03-10T23:48:19.979Z,2.60
2019-03-10T23:53:57.270Z,2.23
2019-03-10T23:56:25.327Z,2.40
2019-03-10T23:58:53.389Z,2.23
